createdAt,value
2023-04-15T00:01:06.984Z,81.10
2023-04-15T00:03:34.730Z,80.90
2023-04-15T00:06:02.455Z,81.10
2023-04-15T00:08:30.169Z,82.00
2023-04-15T00:10:59.443Z,82.00
2023-04-15T00:13:26.557Z,82.00
2023-04-15T00:15:53.460Z,81.80
2023-04-15T00:18:20.425Z,83.30
2023-04-15T00:20:47.730Z,82.90
2023-04-15T00:23:14.681Z,82.00
2023-04-15T00:25:41.768Z,83.50
2023-04-15T00:28:08.710Z,83.40
2023-04-15T00:30:35.654Z,83.70
2023-04-15T00:33:03.728Z,84.60
2023-04-15T00:35:33.938Z,83.70
2023-04-15T00:38:01.415Z,83.80
2023-04-15T00:40:28.416Z,84.40
2023-04-15T00:42:55.513Z,84.60
2023-04-15T00:45:23.356Z,84.40
2023-04-15T00:47:51.977Z,84.60
2023-04-15T00:50:19.176Z,85.00
2023-04-15T00:52:46.169Z,84.60
2023-04-15T00:55:13.895Z,84.20
2023-04-15T00:57:41.632Z,85.50
2023-04-15T01:00:11.452Z,84.40
2023-04-15T01:02:39.227Z,84.30
2023-04-15T01:05:07.686Z,84.70
2023-04-15T01:07:34.718Z,85.10
2023-04-15T01:10:04.215Z,84.40
2023-04-15T01:12:34.406Z,84.80
2023-04-15T01:15:02.720Z,85.10
2023-04-15T01:17:30.146Z,84.90
2023-04-15T01:19:58.040Z,86.70
2023-04-15T01:22:27.772Z,85.70
2023-04-15T01:25:02.426Z,86.70
2023-04-15T01:27:31.308Z,87.40
2023-04-15T01:29:58.508Z,87.10
2023-04-15T01:32:25.681Z,87.60
2023-04-15T01:34:52.834Z,87.50
2023-04-15T01:37:22.959Z,88.00
2023-04-15T01:39:51.655Z,89.20
2023-04-15T01:42:18.632Z,90.00
2023-04-15T01:44:45.593Z,88.40
2023-04-15T01:47:12.848Z,88.20
2023-04-15T01:49:39.804Z,88.30
2023-04-15T01:52:07.038Z,88.40
2023-04-15T01:54:34.782Z,88.50
2023-04-15T01:57:02.283Z,88.50
2023-04-15T01:59:29.726Z,88.50
2023-04-15T02:01:57.464Z,88.80
2023-04-15T02:04:25.582Z,88.80
2023-04-15T02:06:52.558Z,88.80
2023-04-15T02:09:21.856Z,90.40
2023-04-15T02:11:48.870Z,89.00
2023-04-15T02:14:15.783Z,88.60
2023-04-15T02:16:42.878Z,88.40
2023-04-15T02:19:09.912Z,88.50
2023-04-15T02:21:38.148Z,88.40
2023-04-15T02:24:05.313Z,88.70
2023-04-15T02:26:33.536Z,89.10
2023-04-15T02:29:00.940Z,89.00
2023-04-15T02:31:28.323Z,89.50
2023-04-15T02:33:55.345Z,90.00
2023-04-15T02:36:23.917Z,89.90
2023-04-15T02:38:51.418Z,90.50
2023-04-15T02:41:20.351Z,90.30
2023-04-15T02:43:47.370Z,90.60
2023-04-15T02:46:15.073Z,90.60
2023-04-15T02:48:42.231Z,91.60
2023-04-15T02:51:20.019Z,91.40
2023-04-15T02:53:48.917Z,91.00
2023-04-15T02:56:17.192Z,90.90
2023-04-15T02:58:45.828Z,91.40
2023-04-15T03:01:13.621Z,91.00
2023-04-15T03:03:41.713Z,90.90
2023-04-15T03:06:09.132Z,91.50
2023-04-15T03:08:37.025Z,91.00
2023-04-15T03:11:05.105Z,91.20
2023-04-15T03:13:33.370Z,91.20
2023-04-15T03:16:07.154Z,92.00
2023-04-15T03:18:34.559Z,91.50
2023-04-15T03:21:03.789Z,91.60
2023-04-15T03:23:35.013Z,91.60
2023-04-15T03:26:03.817Z,91.60
2023-04-15T03:28:32.898Z,91.90
2023-04-15T03:31:01.142Z,91.90
2023-04-15T03:33:28.387Z,92.20
2023-04-15T03:35:55.331Z,92.40
2023-04-15T03:38:22.268Z,92.30
2023-04-15T03:40:49.151Z,92.70
2023-04-15T03:43:16.564Z,92.70
2023-04-15T03:45:43.529Z,92.70
2023-04-15T03:48:16.688Z,93.00
2023-04-15T03:50:44.578Z,93.00
2023-04-15T03:53:11.519Z,93.30
2023-04-15T03:55:38.608Z,93.60
2023-04-15T03:58:05.663Z,93.40
2023-04-15T04:00:32.691Z,93.40
2023-04-15T04:02:59.900Z,93.80
2023-04-15T04:05:26.980Z,93.70
2023-04-15T04:07:53.930Z,93.80
2023-04-15T04:10:20.962Z,94.50
2023-04-15T04:12:47.873Z,94.60
2023-04-15T04:15:14.801Z,94.40
2023-04-15T04:17:42.335Z,94.40
2023-04-15T04:20:09.770Z,94.70
2023-04-15T04:22:41.297Z,94.70
2023-04-15T04:25:12.574Z,95.30
2023-04-15T04:27:39.579Z,95.10
2023-04-15T04:30:08.110Z,95.60
2023-04-15T04:32:35.047Z,95.80
2023-04-15T04:35:01.935Z,96.00
2023-04-15T04:37:28.969Z,96.10
2023-04-15T04:39:56.278Z,96.20
2023-04-15T04:42:23.398Z,96.10
2023-04-15T04:44:50.288Z,95.90
2023-04-15T04:47:17.261Z,96.00
2023-04-15T04:49:44.136Z,96.10
2023-04-15T04:52:11.821Z,96.30
2023-04-15T04:54:38.728Z,96.30
2023-04-15T04:57:07.825Z,97.10
2023-04-15T04:59:34.811Z,96.80
2023-04-15T05:02:02.114Z,97.60
2023-04-15T05:04:29.053Z,96.90
2023-04-15T05:06:56.305Z,97.10
2023-04-15T05:09:23.476Z,97.20
2023-04-15T05:11:50.467Z,97.20
2023-04-15T05:14:17.342Z,97.70
2023-04-15T05:16:44.323Z,97.90
2023-04-15T05:19:11.239Z,97.60
2023-04-15T05:21:39.521Z,98.40
2023-04-15T05:24:07.173Z,98.10
2023-04-15T05:26:34.112Z,98.30
2023-04-15T05:29:01.262Z,98.70
2023-04-15T05:31:28.509Z,98.70
2023-04-15T05:33:55.666Z,99.00
2023-04-15T05:36:22.590Z,98.90
2023-04-15T05:38:49.608Z,99.20
2023-04-15T05:41:19.087Z,99.20
2023-04-15T05:43:48.430Z,99.50
2023-04-15T05:46:16.051Z,99.40
2023-04-15T05:48:43.004Z,99.70
2023-04-15T05:51:10.506Z,99.90
2023-04-15T05:53:37.594Z,99.90
2023-04-15T05:56:04.909Z,99.90
2023-04-15T05:58:31.833Z,99.90
2023-04-15T06:00:58.925Z,99.90
2023-04-15T06:03:26.375Z,99.90
2023-04-15T06:05:54.375Z,99.90
2023-04-15T06:08:21.922Z,99.90
2023-04-15T06:10:48.927Z,99.80
2023-04-15T06:13:17.842Z,99.80
2023-04-15T06:15:45.045Z,99.80
2023-04-15T06:18:11.974Z,99.80
2023-04-15T06:20:39.014Z,99.90
2023-04-15T06:23:06.195Z,99.90
2023-04-15T06:25:33.255Z,99.90
2023-04-15T06:28:00.322Z,99.90
2023-04-15T06:30:27.359Z,99.90
2023-04-15T06:32:55.800Z,99.90
2023-04-15T06:35:23.173Z,99.90
2023-04-15T06:37:50.288Z,99.90
2023-04-15T06:40:17.781Z,99.90
2023-04-15T06:42:45.444Z,99.90
2023-04-15T06:45:12.407Z,99.90
2023-04-15T06:47:39.386Z,99.80
2023-04-15T06:50:06.863Z,99.60
2023-04-15T06:52:33.843Z,99.60
2023-04-15T06:55:02.267Z,99.30
2023-04-15T06:57:29.305Z,99.30
2023-04-15T06:59:56.469Z,99.10
2023-04-15T07:02:23.741Z,99.30
2023-04-15T07:04:51.230Z,99.30
2023-04-15T07:07:18.310Z,99.50
2023-04-15T07:09:45.294Z,98.80
2023-04-15T07:12:12.353Z,98.00
2023-04-15T07:14:39.309Z,99.20
2023-04-15T07:17:06.757Z,98.50
2023-04-15T07:19:33.763Z,98.50
2023-04-15T07:22:01.218Z,98.40
2023-04-15T07:24:28.169Z,98.20
2023-04-15T07:26:59.403Z,98.20
2023-04-15T07:29:27.706Z,98.70
2023-04-15T07:31:54.678Z,98.00
2023-04-15T07:34:21.799Z,97.90
2023-04-15T07:36:51.995Z,97.80
2023-04-15T07:39:19.093Z,98.00
2023-04-15T07:41:46.636Z,97.60
2023-04-15T07:44:13.700Z,97.90
2023-04-15T07:46:41.178Z,97.20
2023-04-15T07:49:08.285Z,97.10
2023-04-15T07:51:35.194Z,96.80
2023-04-15T07:54:03.092Z,96.50
2023-04-15T07:56:30.362Z,96.90
2023-04-15T07:58:58.940Z,96.10
2023-04-15T08:01:26.847Z,95.60
2023-04-15T08:03:53.967Z,95.10
2023-04-15T08:06:20.945Z,95.30
2023-04-15T08:08:48.286Z,95.20
2023-04-15T08:11:15.672Z,94.80
2023-04-15T08:13:42.653Z,95.00
2023-04-15T08:16:23.544Z,94.50
2023-04-15T08:18:52.796Z,94.40
2023-04-15T08:21:20.368Z,94.50
2023-04-15T08:23:52.420Z,94.90
2023-04-15T08:26:21.129Z,94.10
2023-04-15T08:28:49.315Z,93.80
2023-04-15T08:31:19.097Z,94.10
2023-04-15T08:33:46.832Z,93.60
2023-04-15T08:36:14.232Z,93.60
2023-04-15T08:38:41.472Z,93.30
2023-04-15T08:41:20.815Z,92.50
2023-04-15T08:44:01.225Z,92.10
2023-04-15T08:46:29.253Z,91.70
2023-04-15T08:48:58.743Z,92.00
2023-04-15T08:51:27.613Z,91.90
2023-04-15T08:53:55.136Z,92.00
2023-04-15T08:56:27.260Z,91.50
2023-04-15T08:58:54.882Z,91.50
2023-04-15T09:01:22.853Z,91.90
2023-04-15T09:03:50.752Z,90.80
2023-04-15T09:06:18.685Z,89.20
2023-04-15T09:08:45.793Z,88.90
2023-04-15T09:11:13.294Z,90.00
2023-04-15T09:13:40.763Z,90.00
2023-04-15T09:16:08.563Z,86.60
2023-04-15T09:18:39.032Z,84.20
2023-04-15T09:21:17.661Z,85.00
2023-04-15T09:24:02.445Z,83.80
2023-04-15T09:26:40.126Z,85.10
2023-04-15T09:29:15.022Z,84.50
2023-04-15T09:31:43.507Z,84.60
2023-04-15T09:34:10.731Z,84.00
2023-04-15T09:36:57.003Z,83.00
2023-04-15T09:39:24.259Z,82.10
2023-04-15T09:42:09.769Z,81.00
2023-04-15T09:44:37.573Z,80.90
2023-04-15T09:47:04.675Z,82.50
2023-04-15T09:49:31.651Z,82.60
2023-04-15T09:52:05.616Z,83.40
2023-04-15T09:54:38.723Z,84.80
2023-04-15T09:57:12.246Z,84.40
2023-04-15T09:59:39.756Z,84.10
2023-04-15T10:02:08.810Z,83.50
2023-04-15T10:04:41.610Z,82.70
2023-04-15T10:07:12.993Z,82.50
2023-04-15T10:09:40.866Z,80.20
2023-04-15T10:12:08.936Z,80.50
2023-04-15T10:14:38.816Z,80.50
2023-04-15T10:17:08.316Z,80.80
2023-04-15T10:19:37.874Z,79.30
2023-04-15T10:22:06.707Z,80.00
2023-04-15T10:24:34.092Z,79.80
2023-04-15T10:27:04.435Z,79.40
2023-04-15T10:29:31.847Z,78.40
2023-04-15T10:32:01.427Z,77.00
2023-04-15T10:34:31.170Z,76.90
2023-04-15T10:37:04.755Z,76.10
2023-04-15T10:39:34.916Z,75.90
2023-04-15T10:42:13.966Z,76.60
2023-04-15T10:44:45.555Z,76.20
2023-04-15T10:47:18.669Z,76.20
2023-04-15T10:49:58.858Z,75.60
2023-04-15T10:52:28.858Z,76.40
2023-04-15T10:55:11.146Z,77.80
2023-04-15T10:57:40.113Z,76.20
2023-04-15T11:00:20.196Z,76.90
2023-04-15T11:03:09.862Z,74.50
2023-04-15T11:05:42.807Z,72.50
2023-04-15T11:08:11.729Z,72.60
2023-04-15T11:10:38.481Z,74.30
2023-04-15T11:13:11.381Z,74.10
2023-04-15T11:15:45.075Z,71.70
2023-04-15T11:18:17.423Z,72.30
2023-04-15T11:20:57.559Z,72.20
2023-04-15T11:23:48.725Z,73.50
2023-04-15T11:26:15.791Z,74.00
2023-04-15T11:28:45.801Z,73.80
2023-04-15T11:31:16.690Z,73.20
2023-04-15T11:34:01.524Z,71.50
2023-04-15T11:36:32.083Z,71.40
2023-04-15T11:39:00.547Z,73.00
2023-04-15T11:41:27.534Z,71.30
2023-04-15T11:43:54.579Z,72.00
2023-04-15T11:46:22.724Z,71.80
2023-04-15T11:48:50.073Z,72.50
2023-04-15T11:51:17.116Z,72.40
2023-04-15T11:53:50.048Z,72.00
2023-04-15T11:56:26.228Z,72.30
2023-04-15T11:58:59.559Z,72.20
2023-04-15T12:01:43.847Z,73.10
2023-04-15T12:04:17.627Z,71.10
2023-04-15T12:06:45.992Z,70.90
2023-04-15T12:09:17.341Z,70.60
2023-04-15T12:11:55.500Z,69.80
2023-04-15T12:14:31.269Z,70.40
2023-04-15T12:17:06.738Z,71.60
2023-04-15T12:19:43.221Z,72.00
2023-04-15T12:22:16.400Z,72.10
2023-04-15T12:24:47.945Z,72.70
2023-04-15T12:27:17.446Z,73.60
2023-04-15T12:29:44.708Z,72.60
2023-04-15T12:32:16.938Z,71.10
2023-04-15T12:34:51.776Z,70.00
2023-04-15T12:37:19.540Z,71.10
2023-04-15T12:39:49.594Z,72.30
2023-04-15T12:42:17.747Z,73.40
2023-04-15T12:44:44.964Z,72.80
2023-04-15T12:47:12.713Z,71.50
2023-04-15T12:49:40.975Z,70.90
2023-04-15T12:52:08.730Z,72.30
2023-04-15T12:54:36.356Z,72.10
2023-04-15T12:57:06.758Z,70.50
2023-04-15T12:59:35.078Z,71.10
2023-04-15T13:02:02.929Z,71.70
2023-04-15T13:04:31.308Z,71.50
2023-04-15T13:06:58.696Z,71.90
2023-04-15T13:09:25.888Z,71.30
2023-04-15T13:11:53.116Z,71.50
2023-04-15T13:14:20.489Z,70.90
2023-04-15T13:16:47.665Z,70.90
2023-04-15T13:19:14.871Z,69.90
2023-04-15T13:21:41.802Z,71.00
2023-04-15T13:24:09.828Z,71.00
2023-04-15T13:26:37.687Z,71.80
2023-04-15T13:29:04.886Z,71.90
2023-04-15T13:31:32.009Z,71.10
2023-04-15T13:33:59.084Z,71.20
2023-04-15T13:36:27.242Z,71.50
2023-04-15T13:38:54.722Z,72.70
2023-04-15T13:41:21.953Z,71.80
2023-04-15T13:43:49.061Z,72.20
2023-04-15T13:46:16.240Z,71.70
2023-04-15T13:48:43.413Z,71.90
2023-04-15T13:51:10.416Z,70.80
2023-04-15T13:53:39.226Z,71.20
2023-04-15T13:56:10.625Z,72.00
2023-04-15T13:58:38.691Z,72.30
2023-04-15T14:01:07.086Z,72.90
2023-04-15T14:03:38.058Z,73.40
2023-04-15T14:06:06.322Z,73.30
2023-04-15T14:08:33.535Z,73.10
2023-04-15T14:11:00.844Z,72.40
2023-04-15T14:13:27.919Z,72.20
2023-04-15T14:15:55.396Z,72.50
2023-04-15T14:18:22.452Z,72.30
2023-04-15T14:20:49.410Z,72.60
2023-04-15T14:23:16.357Z,72.60
2023-04-15T14:25:45.071Z,74.20
2023-04-15T14:28:14.020Z,73.10
2023-04-15T14:30:40.933Z,72.70
2023-04-15T14:33:07.917Z,72.60
2023-04-15T14:35:35.218Z,71.80
2023-04-15T14:38:02.136Z,71.90
2023-04-15T14:40:29.239Z,72.70
2023-04-15T14:42:56.291Z,73.20
2023-04-15T14:45:23.315Z,73.00
2023-04-15T14:47:50.407Z,72.80
2023-04-15T14:50:17.699Z,73.40
2023-04-15T14:52:45.396Z,73.60
2023-04-15T14:55:13.537Z,74.30
2023-04-15T14:57:42.291Z,74.00
2023-04-15T15:00:13.763Z,73.20
2023-04-15T15:02:43.848Z,72.30
2023-04-15T15:05:12.145Z,71.70
2023-04-15T15:07:40.893Z,71.40
2023-04-15T15:10:08.596Z,72.40
2023-04-15T15:12:35.765Z,73.60
2023-04-15T15:15:15.480Z,71.90
2023-04-15T15:17:48.764Z,71.50
2023-04-15T15:20:16.698Z,72.30
2023-04-15T15:22:43.958Z,73.70
2023-04-15T15:25:10.983Z,73.60
2023-04-15T15:27:38.460Z,73.20
2023-04-15T15:30:06.942Z,74.00
2023-04-15T15:32:34.716Z,75.00
2023-04-15T15:35:02.947Z,75.70
2023-04-15T15:37:31.465Z,76.10
2023-04-15T15:39:58.761Z,75.40
2023-04-15T15:42:26.371Z,76.10
2023-04-15T15:44:53.264Z,75.70
2023-04-15T15:47:22.443Z,75.70
2023-04-15T15:49:49.645Z,75.70
2023-04-15T15:52:16.682Z,76.50
2023-04-15T15:54:43.698Z,76.60
2023-04-15T15:57:11.437Z,76.70
2023-04-15T15:59:44.020Z,77.00
2023-04-15T16:02:13.427Z,77.30
2023-04-15T16:04:43.183Z,77.90
2023-04-15T16:07:11.912Z,78.50
2023-04-15T16:09:41.175Z,78.90
2023-04-15T16:12:08.180Z,80.60
2023-04-15T16:14:35.352Z,80.10
2023-04-15T16:17:02.540Z,80.40
2023-04-15T16:19:29.551Z,81.10
2023-04-15T16:21:58.037Z,82.70
2023-04-15T16:24:25.854Z,80.90
2023-04-15T16:26:52.955Z,83.80
2023-04-15T16:29:20.643Z,83.10
2023-04-15T16:31:47.991Z,82.80
2023-04-15T16:34:16.060Z,83.40
2023-04-15T16:36:43.524Z,84.20
2023-04-15T16:39:10.442Z,84.80
2023-04-15T16:41:38.534Z,87.20
2023-04-15T16:44:08.335Z,86.60
2023-04-15T16:46:35.319Z,86.80
2023-04-15T16:49:02.262Z,86.50
2023-04-15T16:51:31.525Z,86.50
2023-04-15T16:53:58.793Z,87.30
2023-04-15T16:56:26.194Z,87.50
2023-04-15T16:58:53.416Z,88.40
2023-04-15T17:01:21.588Z,88.30
2023-04-15T17:03:48.908Z,89.20
2023-04-15T17:06:16.524Z,88.40
2023-04-15T17:08:44.726Z,89.40
2023-04-15T17:11:12.399Z,89.40
2023-04-15T17:13:39.394Z,90.10
2023-04-15T17:16:06.666Z,90.60
2023-04-15T17:18:33.664Z,90.70
2023-04-15T17:21:00.894Z,91.10
2023-04-15T17:23:27.921Z,91.00
2023-04-15T17:25:54.933Z,91.40
2023-04-15T17:28:22.147Z,90.90
2023-04-15T17:30:49.199Z,91.20
2023-04-15T17:33:26.156Z,90.90
2023-04-15T17:36:03.399Z,91.00
2023-04-15T17:38:30.496Z,91.10
2023-04-15T17:40:57.527Z,91.20
2023-04-15T17:43:24.460Z,91.90
2023-04-15T17:45:52.194Z,91.70
2023-04-15T17:48:19.127Z,93.00
2023-04-15T17:50:46.522Z,93.50
2023-04-15T17:53:13.725Z,92.80
2023-04-15T17:55:40.718Z,92.70
2023-04-15T17:58:08.774Z,92.90
2023-04-15T18:00:35.725Z,93.00
2023-04-15T18:05:30.540Z,92.70
2023-04-15T18:07:57.482Z,93.00
2023-04-15T18:10:24.566Z,93.80
2023-04-15T18:15:19.456Z,93.10
2023-04-15T18:17:48.794Z,94.00
2023-04-15T18:20:15.969Z,93.60
2023-04-15T18:22:43.568Z,93.80
2023-04-15T18:25:10.814Z,94.20
2023-04-15T18:27:41.268Z,94.20
2023-04-15T18:30:11.034Z,94.00
2023-04-15T18:32:38.974Z,94.00
2023-04-15T18:35:06.742Z,93.80
2023-04-15T18:37:33.910Z,94.00
2023-04-15T18:40:01.016Z,94.00
2023-04-15T18:42:27.982Z,94.20
2023-04-15T18:44:55.916Z,94.20
2023-04-15T18:47:23.835Z,95.00
2023-04-15T18:49:52.369Z,94.30
2023-04-15T18:52:19.352Z,94.60
2023-04-15T18:54:46.294Z,95.20
2023-04-15T18:57:13.231Z,95.00
2023-04-15T18:59:43.308Z,95.30
2023-04-15T19:02:10.318Z,95.40
2023-04-15T19:04:37.404Z,95.70
2023-04-15T19:07:04.612Z,95.80
2023-04-15T19:09:31.787Z,95.80
2023-04-15T19:11:58.681Z,96.10
2023-04-15T19:14:25.750Z,96.50
2023-04-15T19:16:52.800Z,96.00
2023-04-15T19:19:19.896Z,95.80
2023-04-15T19:21:49.759Z,96.30
2023-04-15T19:24:20.159Z,96.30
2023-04-15T19:26:51.152Z,96.40
2023-04-15T19:29:18.585Z,96.20
2023-04-15T19:31:45.660Z,96.30
2023-04-15T19:34:12.636Z,96.20
2023-04-15T19:36:39.627Z,96.80
2023-04-15T19:39:06.795Z,96.50
2023-04-15T19:41:33.889Z,96.90
2023-04-15T19:44:00.905Z,96.80
2023-04-15T19:46:27.976Z,97.00
2023-04-15T19:48:55.637Z,97.00
2023-04-15T19:51:22.994Z,97.00
2023-04-15T19:53:49.944Z,97.80
2023-04-15T19:56:16.961Z,97.10
2023-04-15T19:58:46.791Z,97.80
2023-04-15T20:01:13.892Z,98.00
2023-04-15T20:03:40.989Z,97.70
2023-04-15T20:06:08.112Z,98.30
2023-04-15T20:08:35.077Z,97.50
2023-04-15T20:11:02.111Z,97.70
2023-04-15T20:13:29.289Z,97.70
2023-04-15T20:15:56.230Z,97.70
2023-04-15T20:18:23.199Z,98.70
2023-04-15T20:20:50.750Z,97.90
2023-04-15T20:23:17.731Z,98.10
2023-04-15T20:25:44.777Z,98.20
2023-04-15T20:28:11.914Z,98.50
2023-04-15T20:30:39.583Z,98.00
2023-04-15T20:33:08.191Z,98.20
2023-04-15T20:35:36.208Z,98.40
2023-04-15T20:38:04.449Z,99.40
2023-04-15T20:40:33.792Z,99.60
2023-04-15T20:43:01.239Z,99.20
2023-04-15T20:45:28.196Z,99.30
2023-04-15T20:47:56.172Z,99.10
2023-04-15T20:50:23.264Z,99.40
2023-04-15T20:52:50.515Z,99.70
2023-04-15T20:55:18.391Z,99.60
2023-04-15T20:57:45.524Z,99.40
2023-04-15T21:00:12.893Z,99.30
2023-04-15T21:02:40.042Z,99.40
2023-04-15T21:05:08.019Z,99.50
2023-04-15T21:07:34.895Z,99.60
2023-04-15T21:10:02.026Z,99.70
2023-04-15T21:12:29.030Z,99.90
2023-04-15T21:14:55.974Z,99.90
2023-04-15T21:17:22.914Z,99.90
2023-04-15T21:19:50.784Z,99.90
2023-04-15T21:22:17.660Z,99.90
2023-04-15T21:24:44.577Z,99.90
2023-04-15T21:27:11.494Z,99.80
2023-04-15T21:29:40.450Z,99.90
2023-04-15T21:32:07.442Z,99.90
2023-04-15T21:34:34.636Z,99.90
2023-04-15T21:37:02.026Z,99.80
2023-04-15T21:39:28.967Z,99.90
2023-04-15T21:41:57.916Z,99.90
2023-04-15T21:44:25.753Z,99.90
2023-04-15T21:46:52.732Z,99.90
2023-04-15T21:49:20.797Z,99.90
2023-04-15T21:51:48.004Z,99.90
2023-04-15T21:54:15.367Z,99.90
2023-04-15T21:56:43.146Z,99.90
2023-04-15T21:59:10.105Z,99.90
2023-04-15T22:01:37.130Z,99.90
2023-04-15T22:04:05.866Z,99.90
2023-04-15T22:06:34.150Z,99.90
2023-04-15T22:09:01.084Z,99.90
2023-04-15T22:11:28.832Z,99.90
2023-04-15T22:13:57.826Z,99.90
2023-04-15T22:16:28.655Z,99.90
2023-04-15T22:18:56.193Z,99.90
2023-04-15T22:21:23.609Z,99.90
2023-04-15T22:23:51.577Z,99.90
2023-04-15T22:26:18.514Z,99.90
2023-04-15T22:28:45.865Z,99.90
2023-04-15T22:31:13.703Z,99.90
2023-04-15T22:33:41.228Z,99.90
2023-04-15T22:36:08.177Z,99.90
2023-04-15T22:38:35.536Z,99.90
2023-04-15T22:41:02.501Z,99.90
2023-04-15T22:43:29.406Z,99.90
2023-04-15T22:45:56.732Z,99.90
2023-04-15T22:48:23.763Z,99.90
2023-04-15T22:50:50.763Z,99.90
2023-04-15T22:53:18.135Z,99.90
2023-04-15T22:55:49.281Z,99.90
2023-04-15T22:58:18.338Z,99.90
2023-04-15T23:00:46.002Z,99.90
2023-04-15T23:03:13.240Z,99.90
2023-04-15T23:05:41.190Z,99.90
2023-04-15T23:08:08.435Z,99.90
2023-04-15T23:10:35.575Z,99.90
2023-04-15T23:13:02.685Z,99.90
2023-04-15T23:15:29.629Z,99.90
2023-04-15T23:17:56.827Z,99.90
2023-04-15T23:20:23.812Z,99.90
2023-04-15T23:22:50.821Z,99.90
2023-04-15T23:25:22.123Z,99.90
2023-04-15T23:27:49.078Z,99.90
2023-04-15T23:30:16.301Z,99.90
2023-04-15T23:32:43.396Z,99.90
2023-04-15T23:35:10.590Z,99.90
2023-04-15T23:37:37.534Z,99.90
2023-04-15T23:40:05.574Z,99.90
2023-04-15T23:45:00.299Z,99.90
2023-04-15T23:47:27.366Z,99.90
2023-04-15T23:49:54.321Z,99.90
2023-04-15T23:52:21.295Z,99.90
2023-04-15T23:54:48.206Z,99.90
2023-04-15T23:57:15.130Z,99.90
2023-04-15T23:59:42.117Z,99.90
